Time;durP1;ratioP1;P1;durP2;ratioP2;P2;SDS_P1;SDS_P2;PMS_P1;PMS_P2;Temp;Humidity;BMP_temperature;BMP_pressure;BME280_temperature;BME280_humidity;BME280_pressure;Samples;Min_cycle;Max_cycle;Signal;HPM_P1;HPM_P2
2023/03/03 08:56:09;;;;;;;44.93;21.57;;;;;;;;;;5135618;27;20286;-81
2023/03/03 09:52:14;;;;;;;58.67;27.63;;;2.60;99.90;;;;;;5135379;27;20274;-82
2023/03/03 09:57:04;;;;;;;48.97;26.13;;;2.60;99.90;;;;;;5135445;27;20271;-82
2023/03/03 10:01:49;;;;;;;50.47;27.30;;;2.60;99.90;;;;;;5135379;27;20733;-82
2023/03/03 10:06:11;;;;;;;50.83;27.93;;;3.80;99.90;;;;;;5135170;27;20729;-82
2023/03/03 10:09:58;;;;;;;48.57;26.67;;;2.90;99.90;;;;;;5115375;27;21102;-82
2023/03/03 10:14:12;;;;;;;58.53;31.70;;;3.00;99.90;;;;;;5071915;28;20589;-82
2023/03/03 10:17:51;;;;;;;60.67;33.63;;;3.10;99.90;;;;;;5009221;27;20605;-82
2023/03/03 10:22:05;;;;;;;48.03;27.03;;;3.10;99.90;;;;;;5114894;27;20528;-82
2023/03/03 10:25:49;;;;;;;48.23;26.90;;;3.10;99.90;;;;;;5094728;28;20951;-82
2023/03/03 10:30:01;;;;;;;51.87;27.33;;;3.40;99.90;;;;;;5136470;27;20278;-82
2023/03/03 10:33:01;;;;;;;50.57;29.03;;;3.50;99.90;;;;;;5136315;28;20809;-82
2023/03/03 10:36:11;;;;;;;43.93;26.10;;;3.60;99.90;;;;;;5115892;27;20536;-82
2023/03/03 10:39:51;;;;;;;47.97;26.93;;;3.70;99.90;;;;;;5127816;27;20269;-83
2023/03/03 10:43:56;;;;;;;50.20;26.33;;;3.70;99.90;;;;;;5138558;27;20267;-82
2023/03/03 10:46:40;;;;;;;57.23;27.90;;;3.70;99.90;;;;;;5120624;28;20416;-82
2023/03/03 10:49:17;;;;;;;51.33;27.90;;;3.80;99.90;;;;;;5097666;28;20175;-82
2023/03/03 10:52:10;;;;;;;48.33;26.30;;;3.80;99.90;;;;;;5096509;28;20297;-81
2023/03/03 10:54:59;;;;;;;49.57;27.23;;;3.80;99.90;;;;;;5097058;28;20654;-80
2023/03/03 10:57:44;;;;;;;48.67;28.03;;;3.90;99.90;;;;;;5097045;28;20231;-80
2023/03/03 11:00:21;;;;;;;52.13;27.23;;;3.80;99.90;;;;;;5116293;28;20228;-80
2023/03/03 11:03:01;;;;;;;48.60;27.20;;;3.90;99.90;;;;;;5098358;28;20232;-80
2023/03/03 11:05:44;;;;;;;51.10;28.00;;;4.00;99.90;;;;;;5118102;28;20163;-80
2023/03/03 11:09:05;;;;;;;48.07;27.20;;;4.10;99.90;;;;;;5096721;28;20203;-80
2023/03/03 11:11:59;;;;;;;55.17;28.47;;;4.10;99.90;;;;;;5065407;28;20414;-81
2023/03/03 11:14:46;;;;;;;61.90;31.77;;;4.10;99.90;;;;;;5097047;28;20191;-80
2023/03/03 11:17:49;;;;;;;51.17;29.00;;;4.10;99.90;;;;;;5097577;28;20787;-81
2023/03/03 11:20:30;;;;;;;48.87;28.20;;;4.10;99.90;;;;;;5073934;28;20191;-81
2023/03/03 11:23:01;;;;;;;55.90;31.73;;;4.10;99.90;;;;;;5098663;28;20269;-81
2023/03/03 11:25:31;;;;;;;51.00;29.43;;;4.10;99.90;;;;;;5099830;28;20410;-82
2023/03/03 11:28:21;;;;;;;56.67;31.87;;;4.30;99.90;;;;;;5100589;28;20287;-83
2023/03/03 11:31:20;;;;;;;69.33;38.50;;;4.30;99.90;;;;;;5099731;28;20172;-84
2023/03/03 11:34:05;;;;;;;52.93;30.17;;;4.20;99.90;;;;;;5115763;28;20156;-82
2023/03/03 11:36:38;;;;;;;50.77;28.93;;;4.20;99.90;;;;;;5098399;28;20227;-82
2023/03/03 11:39:16;;;;;;;55.10;30.80;;;4.20;99.90;;;;;;5099825;28;20192;-82
2023/03/03 11:42:06;;;;;;;46.00;28.20;;;4.30;99.90;;;;;;5100629;28;20234;-83
2023/03/03 11:44:40;;;;;;;44.30;26.80;;;4.40;99.90;;;;;;5119287;28;20186;-83
2023/03/03 11:47:28;;;;;;;46.63;27.63;;;4.30;99.90;;;;;;5101671;28;20195;-83
2023/03/03 11:50:23;;;;;;;52.00;28.50;;;4.30;99.90;;;;;;5101133;28;20543;-83
2023/03/03 11:53:19;;;;;;;47.83;28.67;;;4.30;99.90;;;;;;5088389;28;20195;-82
2023/03/03 11:55:55;;;;;;;52.20;28.73;;;4.30;99.90;;;;;;5105093;28;20164;-82
2023/03/03 11:58:30;;;;;;;48.33;29.13;;;4.40;99.90;;;;;;5103658;28;20275;-81
2023/03/03 12:01:22;;;;;;;52.40;30.13;;;4.50;99.90;;;;;;5084488;28;20264;-81
2023/03/03 12:03:57;;;;;;;46.40;27.13;;;4.50;99.90;;;;;;5102465;28;20285;-81
2023/03/03 12:06:46;;;;;;;45.10;28.23;;;4.50;99.90;;;;;;5085556;28;20177;-81
2023/03/03 12:09:27;;;;;;;52.27;29.67;;;4.50;99.90;;;;;;5085586;28;20169;-81
2023/03/03 12:12:02;;;;;;;47.83;27.97;;;4.50;99.90;;;;;;5085713;28;20198;-81
2023/03/03 12:14:44;;;;;;;50.03;28.73;;;4.40;99.90;;;;;;5105566;28;20167;-81
2023/03/03 12:17:27;;;;;;;52.70;30.83;;;4.50;99.90;;;;;;5085323;28;20582;-80
2023/03/03 12:19:56;;;;;;;53.20;29.33;;;4.50;99.90;;;;;;5084952;28;20190;-80
2023/03/03 12:22:37;;;;;;;51.30;28.80;;;4.50;99.90;;;;;;5103367;28;20200;-80
2023/03/03 12:25:20;;;;;;;47.27;28.33;;;4.60;99.90;;;;;;5086616;28;20230;-80
2023/03/03 12:28:04;;;;;;;52.83;28.90;;;4.60;99.90;;;;;;5084791;28;20193;-80
2023/03/03 12:30:58;;;;;;;47.93;29.13;;;4.70;99.90;;;;;;5084937;28;20165;-80
2023/03/03 12:33:36;;;;;;;46.50;28.33;;;4.80;99.90;;;;;;5103756;28;20166;-79
2023/03/03 12:36:37;;;;;;;48.77;29.10;;;4.90;99.90;;;;;;5085260;28;20221;-79
2023/03/03 12:39:15;;;;;;;58.87;29.93;;;5.00;99.90;;;;;;5081922;28;20247;-80
2023/03/03 12:42:09;;;;;;;50.27;29.77;;;4.90;99.90;;;;;;5081994;28;20219;-81
2023/03/03 12:44:46;;;;;;;50.90;29.83;;;4.80;99.90;;;;;;5081423;28;20646;-82
2023/03/03 12:47:28;;;;;;;51.07;29.17;;;4.80;99.90;;;;;;5081760;28;20191;-82
2023/03/03 12:50:14;;;;;;;48.60;29.27;;;4.80;99.90;;;;;;5082966;28;20169;-80
2023/03/03 12:52:56;;;;;;;58.73;31.70;;;4.80;99.90;;;;;;5082892;28;20191;-82
2023/03/03 12:55:46;;;;;;;50.50;30.03;;;4.90;99.90;;;;;;5082161;28;20180;-80
2023/03/03 12:58:24;;;;;;;53.53;30.83;;;4.90;99.90;;;;;;5082765;28;20564;-82
2023/03/03 13:01:04;;;;;;;49.37;29.00;;;4.90;99.90;;;;;;5080045;28;20635;-83
2023/03/03 13:03:42;;;;;;;50.97;29.97;;;4.80;99.90;;;;;;5078997;28;20200;-84
2023/03/03 13:07:12;;;;;;;50.97;30.40;;;4.80;99.90;;;;;;5077956;28;20181;-82
2023/03/03 13:10:05;;;;;;;47.13;28.43;;;4.70;99.90;;;;;;5020985;28;20176;-83
2023/03/03 13:12:59;;;;;;;50.13;28.57;;;4.90;99.90;;;;;;5080311;28;20186;-83
2023/03/03 13:15:29;;;;;;;57.57;30.30;;;4.90;99.90;;;;;;5082726;28;20613;-83
2023/03/03 13:18:29;;;;;;;47.83;28.10;;;4.90;99.90;;;;;;5081672;28;20276;-83
2023/03/03 13:21:04;;;;;;;51.63;30.43;;;4.90;99.90;;;;;;5081472;28;20676;-84
2023/03/03 13:23:50;;;;;;;50.60;29.07;;;4.90;99.90;;;;;;5082135;28;20191;-84
2023/03/03 13:26:26;;;;;;;50.97;29.47;;;4.90;99.90;;;;;;5082911;28;20166;-84
2023/03/03 13:29:04;;;;;;;54.87;31.60;;;4.80;99.90;;;;;;5100497;28;20184;-84
2023/03/03 13:31:46;;;;;;;49.20;31.43;;;4.90;99.90;;;;;;5082177;28;20240;-84
2023/03/03 13:34:32;;;;;;;51.60;29.53;;;4.90;99.90;;;;;;5100414;28;20278;-84
2023/03/03 13:37:20;;;;;;;51.57;30.50;;;4.90;99.90;;;;;;5081581;28;20202;-84
2023/03/03 13:40:13;;;;;;;49.07;29.90;;;4.90;99.90;;;;;;5081550;28;20536;-84
2023/03/03 13:42:58;;;;;;;54.37;30.00;;;4.90;99.90;;;;;;5098938;28;20197;-84
2023/03/03 13:45:26;;;;;;;51.03;30.07;;;4.90;99.90;;;;;;5080844;28;20171;-84
2023/03/03 13:48:14;;;;;;;49.43;29.87;;;4.80;99.90;;;;;;5098651;28;20194;-84
2023/03/03 13:51:08;;;;;;;50.37;29.77;;;4.80;99.90;;;;;;5081215;28;20717;-84
2023/03/03 13:53:43;;;;;;;49.13;28.73;;;4.80;99.90;;;;;;5072651;28;20261;-84
2023/03/03 13:56:32;;;;;;;47.93;29.50;;;4.70;99.90;;;;;;5082017;28;20163;-82
2023/03/03 13:59:12;;;;;;;54.30;30.80;;;4.70;99.90;;;;;;5102077;28;20164;-83
2023/03/03 14:02:00;;;;;;;59.73;30.60;;;4.80;99.90;;;;;;5102334;28;20413;-82
2023/03/03 14:04:46;;;;;;;56.03;31.13;;;4.80;99.90;;;;;;5084203;28;20183;-84
2023/03/03 14:07:35;;;;;;;52.27;29.90;;;4.80;99.90;;;;;;5084343;28;20287;-82
2023/03/03 14:10:18;;;;;;;54.10;32.67;;;4.80;99.90;;;;;;5084816;28;20184;-83
2023/03/03 14:13:03;;;;;;;66.37;35.40;;;4.80;99.90;;;;;;5084959;28;20182;-83
2023/03/03 14:15:31;;;;;;;53.63;31.27;;;4.70;99.90;;;;;;5083324;28;20717;-83
2023/03/03 14:22:51;;;;;;;53.57;31.73;;;4.70;99.90;;;;;;5137268;27;20642;-83
2023/03/03 14:29:46;;;;;;;58.50;32.73;;;4.60;99.90;;;;;;5158031;27;20282;-83
2023/03/03 14:37:41;;;;;;;52.47;30.27;;;4.60;99.90;;;;;;5118081;27;20597;-84
2023/03/03 14:46:14;;;;;;;51.90;28.53;;;4.80;99.90;;;;;;5078537;28;20539;-83
2023/03/03 14:53:17;;;;;;;52.73;30.70;;;4.80;99.90;;;;;;5116228;27;20524;-82
2023/03/03 15:03:22;;;;;;;57.97;30.90;;;4.70;99.90;;;;;;5178703;27;20838;-82
2023/03/03 15:12:23;;;;;;;59.37;34.27;;;4.80;99.90;;;;;;5076006;28;20539;-84
